Time;durP1;ratioP1;P1;durP2;ratioP2;P2;SDS_P1;SDS_P2;PMS_P1;PMS_P2;Temp;Humidity;BMP_temperature;BMP_pressure;BME280_temperature;BME280_humidity;BME280_pressure;Samples;Min_cycle;Max_cycle;Signal;HPM_P1;HPM_P2
2023/08/10 00:00:52;;;;;;;2.83;1.90;;;19.00;99.90;;;;;;5048517;28;20406;-63
2023/08/10 00:03:20;;;;;;;5.07;1.85;;;18.90;99.90;;;;;;5043418;28;20044;-62
2023/08/10 00:05:48;;;;;;;2.42;1.90;;;18.90;99.90;;;;;;5048957;28;20045;-61
2023/08/10 00:08:16;;;;;;;3.15;1.58;;;19.00;99.90;;;;;;5048881;28;20056;-61
2023/08/10 00:10:49;;;;;;;6.05;2.05;;;18.90;99.90;;;;;;5050547;28;20049;-60
2023/08/10 00:13:17;;;;;;;5.82;1.67;;;18.90;99.90;;;;;;5046782;28;20044;-61
2023/08/10 00:15:44;;;;;;;4.20;1.58;;;18.90;99.90;;;;;;5048982;28;20049;-61
2023/08/10 00:18:13;;;;;;;3.92;1.85;;;18.90;99.90;;;;;;5053111;28;20401;-60
2023/08/10 00:20:40;;;;;;;3.97;1.63;;;18.80;99.90;;;;;;5049245;28;20064;-60
2023/08/10 00:23:10;;;;;;;3.05;1.90;;;18.80;99.90;;;;;;5050258;28;20045;-61
2023/08/10 00:25:38;;;;;;;4.82;2.15;;;18.70;99.90;;;;;;5046338;28;20033;-60
2023/08/10 00:28:06;;;;;;;3.63;2.00;;;18.70;99.90;;;;;;5044363;28;20052;-61
2023/08/10 00:30:34;;;;;;;3.70;2.30;;;18.60;99.90;;;;;;5045567;28;20038;-61
2023/08/10 00:33:02;;;;;;;4.40;1.80;;;18.50;99.90;;;;;;5050115;28;20056;-60
2023/08/10 00:35:31;;;;;;;6.30;2.20;;;18.50;99.90;;;;;;5044340;28;20045;-62
2023/08/10 00:37:58;;;;;;;4.15;2.20;;;18.40;99.90;;;;;;5048341;28;20040;-62
2023/08/10 00:40:26;;;;;;;3.92;2.47;;;18.40;99.90;;;;;;5050087;28;20401;-62
2023/08/10 00:42:54;;;;;;;2.90;2.60;;;18.30;99.90;;;;;;5051043;28;20045;-62
2023/08/10 00:45:22;;;;;;;7.35;2.30;;;18.30;99.90;;;;;;5030876;28;20056;-61
2023/08/10 00:47:52;;;;;;;4.97;2.47;;;18.20;99.90;;;;;;5025304;28;20052;-61
2023/08/10 00:50:20;;;;;;;5.28;2.55;;;18.20;99.90;;;;;;5026861;28;20445;-62
2023/08/10 00:52:50;;;;;;;3.47;2.53;;;18.20;99.90;;;;;;5048529;28;20473;-61
2023/08/10 00:55:18;;;;;;;4.28;2.13;;;18.20;99.90;;;;;;5049054;28;20060;-61
2023/08/10 00:57:46;;;;;;;4.10;2.42;;;18.20;99.90;;;;;;5044458;28;20061;-62
2023/08/10 01:00:14;;;;;;;5.78;3.10;;;18.20;99.90;;;;;;5047150;28;20057;-63
2023/08/10 01:02:42;;;;;;;5.05;2.60;;;18.10;99.90;;;;;;5045977;28;20040;-62
2023/08/10 01:05:11;;;;;;;6.18;3.33;;;18.10;99.90;;;;;;5026060;28;20053;-61
2023/08/10 01:07:52;;;;;;;5.88;3.20;;;18.00;99.90;;;;;;5049794;28;20045;-62
2023/08/10 01:10:28;;;;;;;4.97;2.88;;;18.00;99.90;;;;;;5044881;28;20048;-62
2023/08/10 01:13:25;;;;;;;5.72;2.97;;;17.90;99.90;;;;;;5046283;28;20068;-62
2023/08/10 01:15:57;;;;;;;8.52;3.28;;;17.90;99.90;;;;;;5041846;28;20049;-62
2023/08/10 01:18:28;;;;;;;8.65;2.80;;;17.90;99.90;;;;;;5043891;28;20048;-62
2023/08/10 01:20:58;;;;;;;5.38;2.72;;;17.80;99.90;;;;;;5044828;28;20495;-62
2023/08/10 01:23:35;;;;;;;5.13;3.00;;;17.90;99.90;;;;;;5045831;28;20527;-62
2023/08/10 01:26:04;;;;;;;7.32;3.15;;;17.80;99.90;;;;;;5043915;28;20052;-60
2023/08/10 01:28:33;;;;;;;8.23;3.17;;;17.80;99.90;;;;;;5032978;28;20041;-62
2023/08/10 01:31:01;;;;;;;5.80;3.08;;;17.90;99.90;;;;;;5038662;28;20049;-61
2023/08/10 01:33:30;;;;;;;5.18;3.10;;;17.90;99.90;;;;;;5049258;28;20037;-62
2023/08/10 01:35:57;;;;;;;8.45;3.40;;;17.90;99.90;;;;;;5050579;28;20052;-61
2023/08/10 01:38:25;;;;;;;11.25;3.60;;;17.90;99.90;;;;;;5053958;28;20487;-61
2023/08/10 01:40:53;;;;;;;8.43;3.10;;;;;;;;;;5047873;28;20406;-62
2023/08/10 01:43:21;;;;;;;6.13;3.30;;;17.90;99.90;;;;;;5051684;28;20040;-62
2023/08/10 01:45:54;;;;;;;10.20;3.90;;;17.90;99.90;;;;;;5048464;28;20048;-61
2023/08/10 01:48:31;;;;;;;5.00;3.67;;;17.90;99.90;;;;;;5051786;28;20056;-62
2023/08/10 01:51:02;;;;;;;9.10;3.63;;;17.90;99.90;;;;;;5048802;28;20709;-62
2023/08/10 01:53:32;;;;;;;9.85;3.58;;;18.00;99.90;;;;;;5050513;28;20052;-62
2023/08/10 01:56:00;;;;;;;7.65;3.50;;;18.00;99.90;;;;;;5051852;28;20424;-62
2023/08/10 01:58:29;;;;;;;4.82;3.45;;;18.00;99.90;;;;;;5032576;28;20488;-62
2023/08/10 02:00:57;;;;;;;9.77;3.35;;;18.10;99.90;;;;;;5050106;28;20052;-62
2023/08/10 02:03:24;;;;;;;8.25;3.25;;;18.00;99.90;;;;;;5050842;28;20067;-63
2023/08/10 02:05:52;;;;;;;7.97;3.92;;;18.00;99.90;;;;;;5051124;28;20049;-62
2023/08/10 02:08:21;;;;;;;8.27;3.47;;;18.00;99.90;;;;;;5051020;28;20396;-62
2023/08/10 02:10:49;;;;;;;7.55;3.80;;;18.00;99.90;;;;;;5051650;28;20041;-61
2023/08/10 02:13:17;;;;;;;7.65;3.25;;;18.00;99.90;;;;;;5046213;28;20037;-61
2023/08/10 02:15:45;;;;;;;4.47;2.85;;;17.90;99.90;;;;;;5033111;28;20080;-61
2023/08/10 02:18:13;;;;;;;7.38;3.15;;;17.90;99.90;;;;;;5051349;28;20065;-61
2023/08/10 02:20:40;;;;;;;4.90;3.15;;;17.80;99.90;;;;;;5051360;28;20500;-61
2023/08/10 02:23:08;;;;;;;5.45;3.28;;;17.80;99.90;;;;;;5050344;28;20044;-61
2023/08/10 02:25:36;;;;;;;6.80;3.60;;;17.70;99.90;;;;;;5048580;28;20041;-63
2023/08/10 02:28:04;;;;;;;8.75;2.90;;;17.70;99.90;;;;;;5045685;28;20480;-61
2023/08/10 02:30:31;;;;;;;7.45;3.42;;;17.60;99.90;;;;;;5048658;28;20128;-61
2023/08/10 02:32:59;;;;;;;4.95;3.20;;;17.60;99.90;;;;;;5051150;28;20044;-61
2023/08/10 02:35:27;;;;;;;6.50;3.35;;;17.60;99.90;;;;;;5050793;28;20059;-61
2023/08/10 02:37:55;;;;;;;6.50;3.25;;;17.50;99.90;;;;;;5051557;28;20484;-61
2023/08/10 02:40:22;;;;;;;9.95;3.63;;;17.50;99.90;;;;;;5051250;28;20036;-60
2023/08/10 02:42:50;;;;;;;6.75;3.65;;;17.50;99.90;;;;;;5050176;28;20056;-60
2023/08/10 02:45:18;;;;;;;5.70;3.15;;;17.50;99.90;;;;;;5049747;28;20053;-60
2023/08/10 02:47:45;;;;;;;13.75;3.90;;;17.40;99.90;;;;;;5051029;28;20048;-61
2023/08/10 02:50:13;;;;;;;8.88;3.97;;;17.40;99.90;;;;;;5046798;28;20049;-60
2023/08/10 02:52:41;;;;;;;7.90;3.95;;;17.30;99.90;;;;;;5048197;28;20045;-60
2023/08/10 02:55:10;;;;;;;7.28;3.65;;;17.30;99.90;;;;;;5046930;28;20067;-60
2023/08/10 02:57:38;;;;;;;11.38;4.07;;;17.30;99.90;;;;;;5046854;28;20394;-60
2023/08/10 03:00:06;;;;;;;11.65;3.33;;;17.30;99.90;;;;;;5049498;28;20047;-60
2023/08/10 03:02:34;;;;;;;9.60;4.20;;;17.20;99.90;;;;;;5049721;28;20056;-60
2023/08/10 03:05:06;;;;;;;10.68;3.50;;;17.20;99.90;;;;;;5045925;28;20404;-61
2023/08/10 03:07:34;;;;;;;5.35;3.70;;;17.10;99.90;;;;;;5052091;28;20048;-61
2023/08/10 03:10:03;;;;;;;9.32;3.47;;;17.10;99.90;;;;;;5050822;28;20037;-60
2023/08/10 03:12:34;;;;;;;5.75;3.45;;;17.10;99.90;;;;;;5049491;28;20052;-61
2023/08/10 03:15:04;;;;;;;11.98;4.43;;;17.00;99.90;;;;;;5045032;28;20519;-60
2023/08/10 03:17:34;;;;;;;9.57;4.25;;;17.00;99.90;;;;;;5029891;28;20052;-60
2023/08/10 03:20:06;;;;;;;7.03;3.97;;;17.00;99.90;;;;;;5045351;28;20053;-61
2023/08/10 03:22:34;;;;;;;10.65;3.90;;;16.90;99.90;;;;;;5049516;28;20056;-60
2023/08/10 03:25:02;;;;;;;10.50;3.72;;;16.90;99.90;;;;;;5049671;28;20037;-61
2023/08/10 03:27:30;;;;;;;9.52;4.38;;;16.80;99.90;;;;;;5044892;28;20044;-62
2023/08/10 03:29:57;;;;;;;6.55;3.58;;;16.80;99.90;;;;;;5046461;28;20408;-61
2023/08/10 03:32:25;;;;;;;12.75;3.58;;;16.70;99.90;;;;;;5049143;28;20069;-61
2023/08/10 03:34:53;;;;;;;10.15;3.88;;;16.60;99.90;;;;;;5049275;28;20041;-61
2023/08/10 03:37:21;;;;;;;7.07;4.10;;;16.60;99.90;;;;;;5053159;28;20045;-61
2023/08/10 03:39:49;;;;;;;8.77;3.67;;;16.60;99.90;;;;;;5032100;28;20067;-61
2023/08/10 03:42:17;;;;;;;9.07;3.95;;;16.60;99.90;;;;;;5046258;28;20052;-62
2023/08/10 03:44:45;;;;;;;8.25;3.88;;;16.50;99.90;;;;;;5046103;28;20068;-61
2023/08/10 03:47:12;;;;;;;9.27;4.30;;;16.50;99.90;;;;;;5029309;28;20586;-61
2023/08/10 03:49:40;;;;;;;8.43;4.10;;;16.50;99.90;;;;;;5049258;28;20044;-61
2023/08/10 03:52:08;;;;;;;9.93;4.00;;;16.40;99.90;;;;;;5030520;28;20041;-61
2023/08/10 03:54:35;;;;;;;7.20;3.92;;;16.40;99.90;;;;;;5053213;28;20049;-61
2023/08/10 03:57:04;;;;;;;8.27;4.05;;;16.30;99.90;;;;;;5048662;28;20045;-61
2023/08/10 03:59:32;;;;;;;10.80;3.95;;;16.30;99.90;;;;;;5052624;28;20048;-61
2023/08/10 04:01:59;;;;;;;8.68;3.92;;;16.30;99.90;;;;;;5052309;28;20041;-60
2023/08/10 04:04:27;;;;;;;10.18;4.03;;;16.30;99.90;;;;;;5053613;28;20064;-63
2023/08/10 04:06:55;;;;;;;9.38;3.97;;;16.20;99.90;;;;;;5033291;28;20507;-63
2023/08/10 04:09:23;;;;;;;7.63;3.83;;;16.20;99.90;;;;;;5050023;28;20049;-61
2023/08/10 04:11:51;;;;;;;8.00;3.58;;;16.20;99.90;;;;;;5052621;28;20041;-62
2023/08/10 04:14:19;;;;;;;9.50;4.50;;;16.10;99.90;;;;;;5053844;28;20048;-60
2023/08/10 04:16:47;;;;;;;6.35;3.55;;;16.10;99.90;;;;;;5052472;28;20053;-61
2023/08/10 04:19:14;;;;;;;7.55;3.45;;;16.10;99.90;;;;;;5053297;28;20400;-61
2023/08/10 04:21:43;;;;;;;6.20;3.38;;;16.00;99.90;;;;;;5049183;28;20056;-60
2023/08/10 04:24:11;;;;;;;7.90;3.53;;;16.00;99.90;;;;;;5051837;28;20060;-60
2023/08/10 04:26:39;;;;;;;7.47;3.28;;;16.00;99.90;;;;;;5052923;28;20044;-60
2023/08/10 04:29:07;;;;;;;9.18;3.85;;;;;;;;;;5049578;28;20424;-60
2023/08/10 04:31:34;;;;;;;10.20;3.65;;;15.90;99.90;;;;;;5048947;28;20045;-60
2023/08/10 04:34:02;;;;;;;11.15;4.68;;;15.90;99.90;;;;;;5053132;28;20416;-60
2023/08/10 04:36:29;;;;;;;11.63;3.60;;;15.90;99.90;;;;;;5053357;28;20518;-59
2023/08/10 04:38:57;;;;;;;6.20;3.63;;;15.80;99.90;;;;;;5056392;28;20396;-60
2023/08/10 04:41:25;;;;;;;5.07;3.28;;;15.90;99.90;;;;;;5051065;28;20033;-60
2023/08/10 04:43:55;;;;;;;7.47;3.22;;;15.80;99.90;;;;;;5052968;28;20044;-60
2023/08/10 04:46:23;;;;;;;12.88;3.78;;;15.80;99.90;;;;;;5053380;28;20049;-60
2023/08/10 04:48:51;;;;;;;8.85;4.05;;;15.80;99.90;;;;;;5042558;28;20044;-61
2023/08/10 04:51:19;;;;;;;10.00;3.72;;;15.70;99.90;;;;;;5047888;28;20048;-61
2023/08/10 04:53:47;;;;;;;5.60;3.78;;;15.70;99.90;;;;;;5049415;28;20044;-60
2023/08/10 04:56:15;;;;;;;6.28;3.58;;;15.70;99.90;;;;;;5047657;28;20060;-62
2023/08/10 04:58:45;;;;;;;8.77;3.78;;;15.70;99.90;;;;;;5046614;28;20052;-63
2023/08/10 05:01:14;;;;;;;6.82;3.38;;;15.70;99.90;;;;;;5039847;28;20045;-62
2023/08/10 05:03:42;;;;;;;10.05;3.78;;;15.70;99.90;;;;;;5017561;28;20045;-62
2023/08/10 05:06:10;;;;;;;9.80;4.40;;;15.70;99.90;;;;;;5039710;28;20045;-62
2023/08/10 05:08:38;;;;;;;6.30;3.55;;;15.70;99.90;;;;;;5045296;28;20045;-61
2023/08/10 05:11:06;;;;;;;9.00;3.90;;;15.70;99.90;;;;;;5044370;28;20060;-62
2023/08/10 05:13:34;;;;;;;9.68;3.83;;;15.70;99.90;;;;;;5026593;28;20044;-60
2023/08/10 05:16:03;;;;;;;9.18;3.58;;;15.70;99.90;;;;;;5047807;28;20432;-61
2023/08/10 05:18:31;;;;;;;8.98;4.15;;;15.70;99.90;;;;;;5044748;28;20052;-61
2023/08/10 05:21:01;;;;;;;;;;;15.70;99.90;;;;;;5040662;28;20052;-61
2023/08/10 05:23:28;;;;;;;7.65;3.83;;;15.70;99.90;;;;;;5045221;28;19932;-62
2023/08/10 05:25:56;;;;;;;7.88;3.60;;;15.60;99.90;;;;;;5044114;28;20045;-61
2023/08/10 05:28:24;;;;;;;12.88;4.35;;;15.70;99.90;;;;;;5030840;28;20052;-62
2023/08/10 05:30:52;;;;;;;12.40;4.07;;;15.70;99.90;;;;;;5047742;28;20040;-61
2023/08/10 05:33:20;;;;;;;9.13;4.57;;;15.60;99.90;;;;;;5043591;28;20048;-60
2023/08/10 05:35:47;;;;;;;11.63;4.85;;;15.70;99.90;;;;;;5044828;28;20052;-61
2023/08/10 05:38:15;;;;;;;10.80;4.85;;;15.70;99.90;;;;;;5039671;28;20048;-62
2023/08/10 05:40:43;;;;;;;10.88;4.97;;;15.70;99.90;;;;;;5045634;28;20033;-62
2023/08/10 05:43:11;;;;;;;8.25;4.80;;;15.70;99.90;;;;;;5039258;28;20049;-62
2023/08/10 05:45:41;;;;;;;11.65;4.68;;;15.80;99.90;;;;;;5044184;28;20048;-62
2023/08/10 05:48:13;;;;;;;10.52;5.57;;;15.90;99.90;;;;;;5048346;28;20416;-62
2023/08/10 05:50:41;;;;;;;8.98;5.38;;;15.90;99.90;;;;;;5042218;28;20045;-62
2023/08/10 05:53:09;;;;;;;8.85;5.07;;;16.00;99.90;;;;;;5042343;28;20052;-62
2023/08/10 05:55:37;;;;;;;9.13;5.70;;;16.00;99.90;;;;;;5043922;28;20869;-63
2023/08/10 05:58:05;;;;;;;11.57;6.13;;;16.10;99.90;;;;;;5046161;28;20045;-62
2023/08/10 06:00:33;;;;;;;13.82;6.55;;;16.20;99.90;;;;;;5047043;28;20048;-62
2023/08/10 06:03:00;;;;;;;9.95;6.82;;;16.20;99.90;;;;;;5044789;28;20403;-63
2023/08/10 06:05:31;;;;;;;14.15;7.38;;;16.30;99.90;;;;;;5048275;28;20378;-62
2023/08/10 06:07:59;;;;;;;14.98;6.95;;;16.40;99.90;;;;;;5049031;28;20496;-62
2023/08/10 06:10:27;;;;;;;10.95;7.15;;;16.50;99.90;;;;;;5048209;28;20056;-61
2023/08/10 06:12:54;;;;;;;13.27;7.63;;;16.60;99.90;;;;;;5041345;28;20049;-62
2023/08/10 06:15:22;;;;;;;16.17;8.32;;;16.70;99.90;;;;;;5046633;28;20048;-62
2023/08/10 06:17:51;;;;;;;10.88;7.68;;;16.70;99.90;;;;;;5045871;28;20060;-63
2023/08/10 06:20:26;;;;;;;13.80;8.45;;;16.80;99.90;;;;;;5041576;28;20042;-63
2023/08/10 06:22:54;;;;;;;13.60;7.20;;;16.90;99.90;;;;;;5044811;28;20499;-62
2023/08/10 06:25:23;;;;;;;17.02;8.02;;;17.00;99.90;;;;;;5047628;28;20052;-62
2023/08/10 06:27:51;;;;;;;16.08;8.43;;;17.10;99.90;;;;;;5044173;28;20049;-62
2023/08/10 06:30:19;;;;;;;27.55;8.65;;;17.10;99.90;;;;;;5042563;28;20416;-62
2023/08/10 06:32:47;;;;;;;14.15;7.90;;;17.30;99.90;;;;;;5039095;28;20444;-63
2023/08/10 06:35:15;;;;;;;12.68;8.60;;;17.30;99.90;;;;;;5047741;28;20045;-63
2023/08/10 06:37:42;;;;;;;12.48;7.90;;;17.50;99.90;;;;;;5045145;28;20044;-63
2023/08/10 06:40:15;;;;;;;14.98;8.48;;;17.50;99.90;;;;;;5044544;28;20056;-62
2023/08/10 06:42:45;;;;;;;15.27;7.18;;;17.60;99.90;;;;;;5043780;28;20056;-62
2023/08/10 06:45:18;;;;;;;10.57;7.38;;;17.70;99.90;;;;;;5046350;28;20041;-62
2023/08/10 06:47:46;;;;;;;12.70;7.22;;;17.70;99.90;;;;;;5046991;28;20049;-62
2023/08/10 06:50:14;;;;;;;13.88;8.27;;;17.80;99.90;;;;;;5044653;28;20064;-62
2023/08/10 06:52:41;;;;;;;12.73;6.47;;;17.90;99.90;;;;;;5042890;28;20052;-62
2023/08/10 06:55:11;;;;;;;11.52;6.72;;;17.90;99.90;;;;;;5029880;28;20053;-64
2023/08/10 06:57:39;;;;;;;15.25;6.85;;;18.00;99.90;;;;;;5046269;28;20511;-62
2023/08/10 07:00:13;;;;;;;16.33;6.80;;;18.10;99.90;;;;;;5042618;28;20504;-63
2023/08/10 07:02:44;;;;;;;14.13;7.00;;;18.10;99.90;;;;;;5041061;28;20440;-62
2023/08/10 07:05:12;;;;;;;11.10;6.43;;;18.20;99.90;;;;;;5043358;28;20488;-62
2023/08/10 07:07:40;;;;;;;12.82;6.75;;;18.30;99.90;;;;;;5044023;28;20386;-62
2023/08/10 07:10:09;;;;;;;10.02;6.55;;;18.30;99.90;;;;;;5039021;28;20603;-63
2023/08/10 07:12:36;;;;;;;11.97;6.27;;;18.40;99.90;;;;;;5045419;28;20041;-62
2023/08/10 07:15:07;;;;;;;10.80;6.70;;;18.50;99.90;;;;;;5043654;28;20044;-61
2023/08/10 07:17:35;;;;;;;10.07;6.35;;;18.60;99.90;;;;;;5042163;28;20049;-62
2023/08/10 07:20:06;;;;;;;7.85;6.00;;;18.70;99.90;;;;;;5041957;28;20049;-62
2023/08/10 07:22:34;;;;;;;12.73;5.97;;;18.70;99.90;;;;;;5042533;28;20500;-63
2023/08/10 07:25:07;;;;;;;10.98;6.07;;;18.80;99.90;;;;;;5042874;28;20045;-63
2023/08/10 07:27:35;;;;;;;9.88;5.57;;;18.90;99.90;;;;;;5044235;28;20621;-62
2023/08/10 07:30:03;;;;;;;13.55;6.78;;;19.00;99.90;;;;;;5037869;28;20040;-62
2023/08/10 07:32:31;;;;;;;8.55;5.05;;;19.00;99.90;;;;;;5048958;28;20063;-62
2023/08/10 07:34:59;;;;;;;9.93;5.40;;;19.10;99.90;;;;;;5046422;28;20055;-62
2023/08/10 07:37:26;;;;;;;9.95;5.07;;;19.20;99.90;;;;;;5047525;28;20037;-63
2023/08/10 07:39:54;;;;;;;9.45;5.60;;;19.30;99.90;;;;;;5045921;28;20561;-61
2023/08/10 07:42:22;;;;;;;10.02;5.93;;;19.30;99.90;;;;;;5048278;28;20044;-63
2023/08/10 07:44:50;;;;;;;8.98;4.93;;;19.50;99.90;;;;;;5045518;28;20056;-62
2023/08/10 07:47:18;;;;;;;7.32;5.07;;;;;;;;;;5046101;28;20049;-61
2023/08/10 07:49:46;;;;;;;15.18;5.32;;;19.60;99.90;;;;;;5046414;28;20496;-60
2023/08/10 07:52:14;;;;;;;8.55;4.93;;;19.60;99.90;;;;;;5046103;28;20600;-61
2023/08/10 07:54:41;;;;;;;7.72;4.18;;;19.80;99.90;;;;;;5048286;28;20480;-62
2023/08/10 07:57:09;;;;;;;7.57;4.88;;;19.80;99.90;;;;;;5046849;28;20420;-61
2023/08/10 07:59:37;;;;;;;7.90;4.30;;;19.80;99.90;;;;;;5046551;28;20583;-61
2023/08/10 08:02:05;;;;;;;5.78;3.83;;;19.90;99.90;;;;;;5042533;28;20396;-61
2023/08/10 08:04:34;;;;;;;7.20;4.70;;;20.00;99.90;;;;;;5046641;28;20041;-61
2023/08/10 08:07:02;;;;;;;7.63;4.28;;;20.10;99.90;;;;;;5046905;28;20400;-60
2023/08/10 08:09:29;;;;;;;6.18;4.07;;;20.20;99.90;;;;;;5044038;28;20060;-61
2023/08/10 08:11:57;;;;;;;8.32;3.85;;;20.00;99.90;;;;;;5046320;28;20037;-62
2023/08/10 08:14:28;;;;;;;4.60;3.55;;;20.40;99.90;;;;;;5044393;28;20404;-62
2023/08/10 08:16:55;;;;;;;7.45;3.67;;;20.40;99.90;;;;;;5043755;28;20045;-63
2023/08/10 08:19:23;;;;;;;6.18;3.53;;;20.40;99.90;;;;;;5047526;28;20037;-63
2023/08/10 08:21:51;;;;;;;4.32;3.08;;;20.50;99.90;;;;;;5050368;28;20041;-63
2023/08/10 08:24:18;;;;;;;4.75;3.22;;;20.50;99.90;;;;;;5045665;28;20049;-61
2023/08/10 08:26:46;;;;;;;4.18;2.92;;;20.60;99.90;;;;;;5047860;28;20048;-62
2023/08/10 08:29:14;;;;;;;5.93;3.47;;;20.70;99.90;;;;;;5048775;28;20640;-62
2023/08/10 08:31:42;;;;;;;7.50;3.97;;;20.80;99.90;;;;;;5050192;28;20365;-63
2023/08/10 08:34:11;;;;;;;7.47;3.58;;;20.80;99.90;;;;;;5046203;28;20053;-62
2023/08/10 08:36:38;;;;;;;4.38;3.28;;;20.90;99.90;;;;;;5050045;28;20056;-62
2023/08/10 08:39:07;;;;;;;10.63;3.70;;;21.00;99.90;;;;;;5049824;28;20523;-63
2023/08/10 08:41:36;;;;;;;7.22;3.42;;;21.00;99.90;;;;;;5050422;28;20044;-62
2023/08/10 08:44:06;;;;;;;6.68;2.92;;;21.10;99.90;;;;;;5045935;28;20041;-62
2023/08/10 08:46:40;;;;;;;7.82;3.58;;;21.10;99.90;;;;;;5049543;28;20051;-62
2023/08/10 08:49:09;;;;;;;5.63;3.35;;;21.30;99.90;;;;;;5045516;28;20056;-62
2023/08/10 08:51:37;;;;;;;4.07;2.60;;;21.30;99.90;;;;;;5049544;28;20041;-62
2023/08/10 08:54:06;;;;;;;7.00;3.08;;;21.30;99.90;;;;;;5045633;28;20053;-63
2023/08/10 08:56:33;;;;;;;7.65;2.92;;;21.40;99.90;;;;;;5044108;28;20052;-63
2023/08/10 08:59:01;;;;;;;5.05;2.92;;;21.50;99.90;;;;;;5047193;28;20049;-62
2023/08/10 09:01:29;;;;;;;6.00;2.40;;;21.60;99.90;;;;;;5048590;28;20041;-63
2023/08/10 09:03:58;;;;;;;2.42;2.05;;;21.70;99.90;;;;;;5040528;28;20246;-63
2023/08/10 09:06:26;;;;;;;7.78;2.53;;;21.80;99.90;;;;;;5046578;28;20048;-63
2023/08/10 09:08:53;;;;;;;3.83;1.92;;;21.90;99.90;;;;;;5045545;28;20056;-63
2023/08/10 09:11:21;;;;;;;3.13;2.17;;;22.00;99.90;;;;;;5048431;28;20408;-63
2023/08/10 09:14:07;;;;;;;2.50;2.10;;;22.10;99.90;;;;;;5045171;28;20080;-63
2023/08/10 09:16:37;;;;;;;5.40;1.73;;;22.30;99.90;;;;;;5043125;28;20071;-63
2023/08/10 09:19:11;;;;;;;3.42;1.73;;;22.30;99.90;;;;;;5044201;28;20048;-63
2023/08/10 09:21:38;;;;;;;2.83;1.95;;;22.40;99.90;;;;;;5045757;28;20041;-63
2023/08/10 09:24:09;;;;;;;2.17;1.58;;;22.40;99.90;;;;;;5041531;28;20056;-64
2023/08/10 09:26:40;;;;;;;8.35;2.00;;;22.40;99.90;;;;;;5047058;28;20041;-64
2023/08/10 09:29:08;;;;;;;5.30;2.08;;;22.50;99.90;;;;;;5044245;28;20057;-63
2023/08/10 09:31:42;;;;;;;3.47;2.10;;;22.50;99.90;;;;;;5047437;28;20044;-64
2023/08/10 09:34:13;;;;;;;3.45;1.92;;;22.50;99.90;;;;;;5043711;28;20049;-65
2023/08/10 09:36:52;;;;;;;4.30;1.95;;;22.60;99.90;;;;;;5043245;28;20051;-63
2023/08/10 09:39:20;;;;;;;3.35;2.17;;;22.60;99.90;;;;;;5045979;28;20053;-63
2023/08/10 09:41:57;;;;;;;4.20;1.80;;;22.60;99.90;;;;;;5044178;28;20056;-62
2023/08/10 09:44:25;;;;;;;5.80;1.75;;;22.70;99.90;;;;;;5042137;28;20060;-64
2023/08/10 09:46:58;;;;;;;3.78;1.73;;;22.70;99.90;;;;;;5048958;28;20503;-63
2023/08/10 09:49:26;;;;;;;4.85;1.73;;;22.70;99.90;;;;;;5044458;28;20056;-63
2023/08/10 09:51:58;;;;;;;2.42;1.73;;;22.80;99.90;;;;;;5043834;28;20044;-63
2023/08/10 09:54:28;;;;;;;4.10;1.77;;;22.90;99.90;;;;;;5036947;28;20056;-63
2023/08/10 09:56:57;;;;;;;6.05;1.83;;;23.00;99.90;;;;;;5038417;28;20041;-63
2023/08/10 09:59:25;;;;;;;3.00;1.67;;;23.00;99.90;;;;;;5045529;28;20060;-63
2023/08/10 10:01:54;;;;;;;5.20;2.00;;;23.10;99.90;;;;;;5048792;28;20301;-62
2023/08/10 10:04:23;;;;;;;3.08;2.22;;;23.20;99.90;;;;;;5046624;28;20052;-63
2023/08/10 10:06:51;;;;;;;3.75;1.80;;;23.20;99.90;;;;;;5043574;28;20051;-62
2023/08/10 10:09:20;;;;;;;3.42;1.67;;;23.30;99.90;;;;;;5043950;28;20049;-63
2023/08/10 10:11:49;;;;;;;4.63;1.83;;;23.50;99.90;;;;;;5044944;28;20103;-63
2023/08/10 10:14:19;;;;;;;2.25;1.63;;;23.70;99.90;;;;;;5051314;28;20041;-63
2023/08/10 10:16:47;;;;;;;2.05;1.85;;;23.90;99.90;;;;;;5038428;28;20045;-62
2023/08/10 10:19:15;;;;;;;4.32;2.00;;;24.10;99.90;;;;;;5041405;28;20052;-63
2023/08/10 10:21:44;;;;;;;6.45;1.83;;;24.20;99.90;;;;;;5043283;28;20225;-63
2023/08/10 10:24:17;;;;;;;2.42;2.10;;;24.10;99.90;;;;;;5048514;28;20052;-63
2023/08/10 10:27:08;;;;;;;2.65;1.67;;;24.10;99.90;;;;;;5042684;28;20049;-63
2023/08/10 10:29:37;;;;;;;5.85;2.13;;;24.20;99.90;;;;;;5044446;28;20040;-63
2023/08/10 10:32:11;;;;;;;4.05;1.75;;;24.30;99.90;;;;;;5046783;28;20052;-63
2023/08/10 10:34:40;;;;;;;3.25;1.70;;;24.50;99.90;;;;;;5044522;28;20049;-63
2023/08/10 10:37:08;;;;;;;5.70;2.38;;;24.60;99.90;;;;;;5042444;28;20041;-63
2023/08/10 10:39:40;;;;;;;3.90;2.15;;;24.70;99.90;;;;;;5047764;28;20056;-63
2023/08/10 10:42:11;;;;;;;5.47;2.13;;;24.80;99.90;;;;;;5048885;28;20037;-62
2023/08/10 10:45:07;;;;;;;6.53;2.10;;;24.90;99.90;;;;;;5045647;28;20044;-63
2023/08/10 10:47:47;;;;;;;9.60;2.75;;;24.90;99.90;;;;;;5048546;28;20055;-62
2023/08/10 10:50:20;;;;;;;4.07;2.30;;;24.90;99.90;;;;;;5044361;28;20050;-63
2023/08/10 10:53:00;;;;;;;2.72;1.83;;;25.00;99.90;;;;;;5046452;28;20041;-62
2023/08/10 10:55:37;;;;;;;8.75;2.10;;;25.10;99.90;;;;;;5036507;28;20057;-63
2023/08/10 10:58:06;;;;;;;6.90;2.35;;;25.20;99.90;;;;;;5045493;28;20069;-63
2023/08/10 11:00:36;;;;;;;4.32;1.90;;;25.30;99.90;;;;;;5047352;28;20504;-63
2023/08/10 11:03:05;;;;;;;;;;;25.30;99.90;;;;;;5044675;28;20059;-62
2023/08/10 11:05:35;;;;;;;4.95;1.88;;;25.50;99.90;;;;;;5047764;28;19995;-63
2023/08/10 11:08:06;;;;;;;9.90;2.72;;;25.50;99.90;;;;;;5045744;28;20052;-63
2023/08/10 11:10:37;;;;;;;4.13;2.08;;;25.70;99.90;;;;;;5045586;28;20033;-62
2023/08/10 11:13:06;;;;;;;4.03;1.80;;;25.70;99.90;;;;;;5050937;28;20048;-63
2023/08/10 11:15:34;;;;;;;2.55;1.70;;;25.80;99.90;;;;;;5051374;28;20045;-63
2023/08/10 11:18:11;;;;;;;5.82;2.80;;;25.90;99.90;;;;;;5051421;28;20044;-63
2023/08/10 11:20:48;;;;;;;3.95;1.90;;;25.90;99.90;;;;;;5042764;28;20037;-62
2023/08/10 11:23:16;;;;;;;2.10;1.80;;;26.00;99.90;;;;;;5049071;28;20075;-62
2023/08/10 11:25:49;;;;;;;4.43;1.80;;;26.00;99.90;;;;;;5047679;28;20052;-61
2023/08/10 11:28:20;;;;;;;8.00;2.42;;;26.10;99.90;;;;;;5050952;28;20388;-63
2023/08/10 11:30:49;;;;;;;3.90;2.00;;;26.10;99.90;;;;;;5047604;28;20496;-62
2023/08/10 11:33:17;;;;;;;3.65;2.22;;;26.20;99.90;;;;;;5050825;28;20444;-62
2023/08/10 11:35:51;;;;;;;5.55;1.92;;;26.40;99.90;;;;;;5047935;28;20053;-63
2023/08/10 11:38:21;;;;;;;2.88;1.70;;;26.90;99.90;;;;;;5052132;28;20444;-63
2023/08/10 11:40:50;;;;;;;4.75;1.58;;;26.50;99.90;;;;;;5049765;28;20056;-63
2023/08/10 11:43:21;;;;;;;3.08;1.48;;;26.60;99.90;;;;;;5047937;28;20056;-64
2023/08/10 11:45:49;;;;;;;11.13;2.45;;;26.70;99.90;;;;;;5043953;28;20824;-64
2023/08/10 11:48:19;;;;;;;5.95;2.20;;;27.00;99.90;;;;;;5049394;28;20052;-62
2023/08/10 11:50:47;;;;;;;11.27;2.60;;;27.00;99.90;;;;;;5048361;28;20048;-63
2023/08/10 11:53:18;;;;;;;7.78;2.35;;;27.40;99.90;;;;;;5048765;28;20056;-63
2023/08/10 11:55:51;;;;;;;2.63;2.17;;;27.40;99.90;;;;;;5049878;28;20036;-63
2023/08/10 11:58:19;;;;;;;2.78;1.98;;;27.60;99.90;;;;;;5051299;28;20037;-63
2023/08/10 12:00:54;;;;;;;4.07;1.75;;;27.70;99.90;;;;;;5048454;28;20060;-63
2023/08/10 12:03:27;;;;;;;6.05;1.85;;;27.90;99.90;;;;;;5048148;28;20052;-67
2023/08/10 12:06:04;;;;;;;2.78;1.98;;;28.10;99.90;;;;;;5046800;28;20059;-64
2023/08/10 12:08:40;;;;;;;2.10;1.30;;;28.60;99.90;;;;;;5047176;28;20551;-65
2023/08/10 12:11:11;;;;;;;1.83;1.63;;;28.80;99.40;;;;;;5050287;28;20048;-64
2023/08/10 12:13:53;;;;;;;2.00;1.63;;;28.90;99.30;;;;;;5049941;28;20041;-64
2023/08/10 12:16:21;;;;;;;6.65;1.65;;;29.00;99.40;;;;;;5047248;28;20041;-64
2023/08/10 12:18:50;;;;;;;1.98;1.50;;;29.30;99.30;;;;;;5049484;28;20076;-64
2023/08/10 12:21:19;;;;;;;;;;;29.40;98.10;;;;;;5043987;28;20048;-63
2023/08/10 12:23:46;;;;;;;3.05;1.58;;;29.60;98.50;;;;;;5052319;28;19948;-64
2023/08/10 12:26:17;;;;;;;4.90;1.80;;;29.70;97.70;;;;;;5046402;28;20045;-64
2023/08/10 12:28:45;;;;;;;5.60;1.98;;;29.80;97.70;;;;;;5038637;28;20045;-64
2023/08/10 12:31:13;;;;;;;4.22;1.60;;;30.10;97.50;;;;;;5047161;28;20056;-64
2023/08/10 12:33:41;;;;;;;2.05;1.58;;;30.60;97.70;;;;;;5044467;28;20048;-64
2023/08/10 12:36:09;;;;;;;4.88;1.65;;;30.60;97.90;;;;;;5044449;28;20037;-64
2023/08/10 12:38:37;;;;;;;5.40;2.00;;;31.00;96.40;;;;;;5055060;28;20033;-64
2023/08/10 12:41:07;;;;;;;6.30;1.50;;;31.10;95.50;;;;;;5046772;28;20057;-64
2023/08/10 12:43:35;;;;;;;5.57;1.95;;;31.30;96.20;;;;;;5052962;28;20044;-64
2023/08/10 12:46:03;;;;;;;1.75;1.42;;;31.40;95.40;;;;;;5049903;28;20051;-64
2023/08/10 12:48:30;;;;;;;2.42;1.50;;;31.50;95.00;;;;;;5051163;28;20041;-64
2023/08/10 12:50:58;;;;;;;2.28;1.35;;;31.60;94.40;;;;;;5045552;28;20540;-64
2023/08/10 12:53:26;;;;;;;5.38;1.80;;;31.70;93.90;;;;;;5049984;28;20049;-64
2023/08/10 12:55:54;;;;;;;3.92;1.70;;;31.90;93.10;;;;;;5045464;28;20040;-64